Time,TemperatureF,DewpointF,PressureIn,WindDirection,WindDirectionDegrees,WindSpeedMPH,WindSpeedGustMPH,Humidity,HourlyPrecipIn,Conditions,Clouds,dailyrainin,SoftwareType,DateUTC
2013-05-04 00:09:00,56.8,53.9,29.29,NW,315,5.4,8.3,87,0.00,,,0.00,fowsr,2013-05-03 22:09:00,
2013-05-04 00:39:00,56.3,53.6,29.29,WNW,292,2.2,5.4,88,0.00,,,0.00,fowsr,2013-05-03 22:39:00,
2013-05-04 01:09:00,55.9,53.3,29.30,West,270,5.4,9.8,88,0.00,,,0.00,fowsr,2013-05-03 23:09:00,
2013-05-04 01:39:00,55.4,52.5,29.30,NW,315,0.0,0.7,87,0.00,,,0.00,fowsr,2013-05-03 23:39:00,
2013-05-04 02:09:00,54.9,52.2,29.28,NE,45,0.7,1.6,88,0.00,,,0.00,fowsr,2013-05-04 00:09:00,
2013-05-04 02:39:00,54.3,51.9,29.27,NW,315,0.0,0.0,89,0.00,,,0.00,fowsr,2013-05-04 00:39:00,
2013-05-04 03:09:00,53.4,51.7,29.29,SW,225,1.6,3.1,92,0.00,,,0.00,fowsr,2013-05-04 01:09:00,
2013-05-04 03:39:00,53.4,52.1,29.31,NW,315,4.5,6.0,94,0.00,,,0.00,fowsr,2013-05-04 01:39:00,
2013-05-04 04:09:00,53.4,52.4,29.31,WNW,292,2.2,4.5,95,0.00,,,0.00,fowsr,2013-05-04 02:09:00,
2013-05-04 04:39:00,52.5,51.5,29.32,West,270,0.7,3.1,95,0.00,,,0.00,fowsr,2013-05-04 02:39:00,
2013-05-04 05:09:00,52.2,51.3,29.32,West,270,0.0,0.0,96,0.00,,,0.00,fowsr,2013-05-04 03:09:00,
2013-05-04 05:39:00,52.7,51.9,29.32,WSW,247,0.0,1.6,96,0.00,,,0.00,fowsr,2013-05-04 03:39:00,
2013-05-04 06:09:00,53.8,52.7,29.34,NW,315,0.7,1.6,95,0.00,,,0.00,fowsr,2013-05-04 04:09:00,
2013-05-04 06:39:00,55.6,53.2,29.35,WSW,247,3.8,7.6,89,0.00,,,0.00,fowsr,2013-05-04 04:39:00,
2013-05-04 07:09:00,57.7,53.6,29.36,North,0,2.2,5.4,82,0.00,,,0.00,fowsr,2013-05-04 05:09:00,
2013-05-04 07:39:00,58.1,53.7,29.36,West,270,7.6,11.4,81,0.00,,,0.00,fowsr,2013-05-04 05:39:00,
2013-05-04 08:09:00,59.5,53.5,29.37,WSW,247,3.8,6.9,75,0.00,,,0.00,fowsr,2013-05-04 06:09:00,
2013-05-04 08:39:00,61.5,54.5,29.38,West,270,7.6,9.8,72,0.00,,,0.00,fowsr,2013-05-04 06:39:00,
2013-05-04 09:09:00,63.0,54.7,29.38,West,270,9.8,13.6,68,0.00,,,0.00,fowsr,2013-05-04 07:09:00,
2013-05-04 09:39:00,64.2,54.6,29.38,NW,315,4.5,6.0,64,0.00,,,0.00,fowsr,2013-05-04 07:39:00,
2013-05-04 10:09:00,65.8,55.8,29.39,East,90,3.8,6.0,63,0.00,,,0.00,fowsr,2013-05-04 08:09:00,
2013-05-04 10:39:00,66.9,55.8,29.39,West,270,5.4,7.6,60,0.00,,,0.00,fowsr,2013-05-04 08:39:00,
2013-05-04 11:09:00,66.7,56.0,29.39,West,270,9.2,15.2,61,0.00,,,0.00,fowsr,2013-05-04 09:09:00,
2013-05-04 11:39:00,68.0,56.1,29.40,West,270,7.6,9.8,58,0.00,,,0.00,fowsr,2013-05-04 09:39:00,
2013-05-04 12:09:00,68.7,57.1,29.39,West,270,6.9,8.3,59,0.00,,,0.00,fowsr,2013-05-04 10:09:00,
2013-05-04 12:39:00,69.8,56.6,29.39,West,270,6.0,11.4,55,0.00,,,0.00,fowsr,2013-05-04 10:39:00,
2013-05-04 13:09:00,70.0,56.8,29.39,NW,315,8.3,11.4,55,0.00,,,0.00,fowsr,2013-05-04 11:09:00,
2013-05-04 13:39:00,69.8,57.0,29.39,North,0,5.4,9.2,56,0.00,,,0.00,fowsr,2013-05-04 11:39:00,
2013-05-04 14:09:00,70.3,56.3,29.39,NW,315,6.0,9.2,53,0.00,,,0.00,fowsr,2013-05-04 12:09:00,
2013-05-04 14:39:00,71.4,57.3,29.38,West,270,8.3,9.8,53,0.00,,,0.00,fowsr,2013-05-04 12:39:00,
2013-05-04 15:09:00,72.5,57.1,29.38,NW,315,6.9,9.8,50,0.00,,,0.00,fowsr,2013-05-04 13:09:00,
2013-05-04 15:39:00,73.0,58.0,29.37,West,270,5.4,8.3,51,0.00,,,0.00,fowsr,2013-05-04 13:39:00,
2013-05-04 16:09:00,73.4,58.7,29.37,NW,315,6.0,9.2,52,0.00,,,0.00,fowsr,2013-05-04 14:09:00,
2013-05-04 16:39:00,73.8,58.2,29.37,NW,315,7.6,9.8,50,0.00,,,0.00,fowsr,2013-05-04 14:39:00,
2013-05-04 17:09:00,73.9,59.2,29.37,NW,315,4.5,6.0,52,0.00,,,0.00,fowsr,2013-05-04 15:09:00,
2013-05-04 17:39:00,72.3,57.7,29.38,West,270,6.0,9.8,52,0.00,,,0.00,fowsr,2013-05-04 15:39:00,
2013-05-04 18:09:00,71.4,57.7,29.38,NW,315,3.8,7.6,54,0.00,,,0.00,fowsr,2013-05-04 16:09:00,
2013-05-04 18:39:00,67.8,57.3,29.39,NE,45,2.2,4.5,62,0.00,,,0.00,fowsr,2013-05-04 16:39:00,
2013-05-04 19:09:00,66.2,56.5,29.39,West,270,0.7,2.2,64,0.00,,,0.00,fowsr,2013-05-04 17:09:00,
2013-05-04 19:39:00,65.1,56.4,29.40,North,0,0.0,0.7,67,0.00,,,0.00,fowsr,2013-05-04 17:39:00,
2013-05-04 20:09:00,63.9,56.2,29.41,North,0,0.0,0.0,70,0.00,,,0.00,fowsr,2013-05-04 18:09:00,
2013-05-04 20:39:00,63.1,55.5,29.42,NW,315,0.0,0.0,70,0.00,,,0.00,fowsr,2013-05-04 18:39:00,
2013-05-04 21:09:00,61.5,55.7,29.43,West,270,1.6,2.2,76,0.00,,,0.00,fowsr,2013-05-04 19:09:00,
2013-05-04 21:39:00,61.9,55.7,29.43,West,270,0.0,1.6,75,0.00,,,0.00,fowsr,2013-05-04 19:39:00,
2013-05-04 22:09:00,60.8,55.2,29.43,West,270,2.2,3.1,77,0.00,,,0.00,fowsr,2013-05-04 20:09:00,
2013-05-04 22:39:00,58.8,54.4,29.44,NW,315,0.0,0.7,81,0.00,,,0.00,fowsr,2013-05-04 20:39:00,
2013-05-04 23:09:00,57.7,54.1,29.44,East,90,0.7,2.2,84,0.00,,,0.00,fowsr,2013-05-04 21:09:00,
2013-05-04 23:39:00,57.2,54.0,29.44,West,270,0.0,0.7,86,0.00,,,0.00,fowsr,2013-05-04 21:39:00,